createdAt,value
2023-04-08T00:02:18.681Z,7.75
2023-04-08T00:04:46.396Z,8.40
2023-04-08T00:07:13.667Z,8.18
2023-04-08T00:09:41.345Z,7.50
2023-04-08T00:12:08.868Z,7.82
2023-04-08T00:14:38.452Z,8.45
2023-04-08T00:17:05.940Z,8.18
2023-04-08T00:19:36.126Z,8.20
2023-04-08T00:22:03.980Z,8.40
2023-04-08T00:24:31.637Z,8.48
2023-04-08T00:26:59.027Z,7.35
2023-04-08T00:29:26.547Z,8.02
2023-04-08T00:32:09.123Z,7.68
2023-04-08T00:34:37.384Z,8.85
2023-04-08T00:37:04.722Z,8.20
2023-04-08T00:39:32.049Z,8.27
2023-04-08T00:41:59.368Z,8.75
2023-04-08T00:44:33.093Z,8.52
2023-04-08T00:47:00.779Z,8.10
2023-04-08T00:49:28.051Z,8.95
2023-04-08T00:51:56.183Z,7.95
2023-04-08T00:54:23.614Z,8.95
2023-04-08T00:56:51.177Z,8.52
2023-04-08T00:59:19.094Z,8.10
2023-04-08T01:02:07.177Z,8.40
2023-04-08T01:04:59.211Z,9.20
2023-04-08T01:07:41.653Z,9.10
2023-04-08T01:10:23.333Z,8.73
2023-04-08T01:12:59.888Z,8.88
2023-04-08T01:15:29.689Z,8.70
2023-04-08T01:18:00.237Z,9.32
2023-04-08T01:20:28.918Z,9.00
2023-04-08T01:23:01.461Z,8.52
2023-04-08T01:25:34.551Z,8.80
2023-04-08T01:28:07.513Z,8.63
2023-04-08T01:30:35.884Z,8.77
2023-04-08T01:33:05.402Z,9.20
2023-04-08T01:35:33.320Z,9.88
2023-04-08T01:38:01.684Z,9.52
2023-04-08T01:40:34.645Z,9.23
2023-04-08T01:43:05.936Z,9.68
2023-04-08T01:45:33.768Z,9.60
2023-04-08T01:48:02.466Z,9.35
2023-04-08T01:53:20.685Z,9.02
2023-04-08T01:55:52.196Z,9.13
2023-04-08T02:00:57.655Z,9.98
2023-04-08T02:03:27.642Z,9.15
2023-04-08T02:05:58.933Z,9.20
2023-04-08T02:08:26.590Z,9.30
2023-04-08T02:13:44.946Z,8.23
2023-04-08T02:16:34.152Z,8.98
2023-04-08T02:19:10.691Z,8.80
2023-04-08T02:21:47.094Z,8.45
2023-04-08T02:24:17.528Z,8.88
2023-04-08T02:26:45.859Z,7.93
2023-04-08T02:29:15.946Z,7.90
2023-04-08T02:31:44.713Z,8.65
2023-04-08T02:34:16.280Z,9.35
2023-04-08T02:36:46.371Z,8.57
2023-04-08T02:39:14.109Z,8.35
2023-04-08T02:41:44.323Z,8.18
2023-04-08T02:44:11.739Z,9.10
2023-04-08T02:46:41.906Z,9.32
2023-04-08T02:49:09.225Z,8.93
2023-04-08T02:51:41.263Z,8.45
2023-04-08T02:54:21.067Z,9.18
2023-04-08T02:56:48.894Z,9.05
2023-04-08T02:59:16.434Z,8.88
2023-04-08T03:01:45.212Z,8.45
2023-04-08T03:04:15.673Z,7.85
2023-04-08T03:06:42.974Z,9.10
2023-04-08T03:09:10.185Z,8.77
2023-04-08T03:11:37.475Z,9.55
2023-04-08T03:14:04.817Z,9.45
2023-04-08T03:16:32.286Z,9.25
2023-04-08T03:18:59.550Z,8.80
2023-04-08T03:21:27.200Z,9.27
2023-04-08T03:23:54.540Z,9.70
2023-04-08T03:26:22.236Z,9.43
2023-04-08T03:28:50.051Z,9.52
2023-04-08T03:31:17.785Z,9.18
2023-04-08T03:33:45.128Z,9.05
2023-04-08T03:36:12.508Z,9.63
2023-04-08T03:38:39.822Z,9.48
2023-04-08T03:41:08.226Z,8.95
2023-04-08T03:43:37.846Z,9.80
2023-04-08T03:46:05.609Z,9.75
2023-04-08T03:48:33.485Z,9.75
2023-04-08T03:51:00.886Z,9.95
2023-04-08T03:53:29.687Z,10.75
2023-04-08T03:55:57.864Z,11.38
2023-04-08T03:58:25.405Z,12.20
2023-04-08T04:00:53.489Z,12.55
2023-04-08T04:03:21.789Z,12.43
2023-04-08T04:05:49.603Z,12.15
2023-04-08T04:08:17.240Z,12.80
2023-04-08T04:10:44.581Z,12.25
2023-04-08T04:13:11.875Z,12.00
2023-04-08T04:15:40.762Z,12.55
2023-04-08T04:18:08.839Z,12.63
2023-04-08T04:20:38.295Z,12.13
2023-04-08T04:23:05.982Z,12.43
2023-04-08T04:25:33.270Z,13.30
2023-04-08T04:28:03.132Z,12.23
2023-04-08T04:30:30.460Z,13.73
2023-04-08T04:33:10.450Z,14.02
2023-04-08T04:35:44.409Z,13.43
2023-04-08T04:38:12.929Z,13.88
2023-04-08T04:40:40.866Z,13.27
2023-04-08T04:43:17.134Z,13.98
2023-04-08T04:46:35.726Z,13.95
2023-04-08T04:49:03.418Z,15.15
2023-04-08T04:51:33.412Z,15.10
2023-04-08T04:54:00.736Z,14.45
2023-04-08T04:56:29.448Z,14.30
2023-04-08T04:58:56.864Z,15.30
2023-04-08T05:01:29.085Z,15.50
2023-04-08T05:03:58.221Z,14.32
2023-04-08T05:06:27.270Z,13.90
2023-04-08T05:08:54.879Z,14.77
2023-04-08T05:11:22.354Z,14.82
2023-04-08T05:13:50.021Z,14.02
2023-04-08T05:16:18.002Z,13.60
2023-04-08T05:18:45.943Z,14.40
2023-04-08T05:21:13.176Z,15.50
2023-04-08T05:23:40.533Z,14.80
2023-04-08T05:26:09.027Z,17.95
2023-04-08T05:28:37.420Z,16.58
2023-04-08T05:31:04.905Z,17.15
2023-04-08T05:33:32.372Z,17.83
2023-04-08T05:35:59.599Z,16.55
2023-04-08T05:38:27.302Z,17.35
2023-04-08T05:40:54.800Z,16.65
2023-04-08T05:43:22.354Z,17.42
2023-04-08T05:45:49.850Z,17.75
2023-04-08T05:48:17.365Z,17.20
2023-04-08T05:50:44.918Z,17.65
2023-04-08T05:53:12.498Z,16.48
2023-04-08T05:55:42.992Z,19.20
2023-04-08T05:58:10.205Z,17.73
2023-04-08T06:00:37.658Z,18.85
2023-04-08T06:03:05.230Z,18.15
2023-04-08T06:05:33.016Z,18.50
2023-04-08T06:08:25.771Z,19.17
2023-04-08T06:10:53.589Z,17.55
2023-04-08T06:13:22.081Z,18.30
2023-04-08T06:15:50.053Z,18.33
2023-04-08T06:18:17.833Z,19.77
2023-04-08T06:20:45.153Z,20.45
2023-04-08T06:23:13.148Z,18.65
2023-04-08T06:25:40.549Z,18.38
2023-04-08T06:28:08.055Z,18.00
2023-04-08T06:30:35.366Z,16.70
2023-04-08T06:33:04.206Z,16.48
2023-04-08T06:35:34.985Z,18.60
2023-04-08T06:38:02.453Z,18.48
2023-04-08T06:40:30.564Z,18.67
2023-04-08T06:43:23.121Z,19.25
2023-04-08T06:45:50.895Z,17.50
2023-04-08T06:48:18.179Z,19.10
2023-04-08T06:50:45.778Z,19.02
2023-04-08T06:53:13.448Z,18.27
2023-04-08T06:55:41.189Z,17.98
2023-04-08T06:58:08.473Z,18.77
2023-04-08T07:00:35.894Z,20.23
2023-04-08T07:03:03.285Z,17.52
2023-04-08T07:05:31.949Z,17.83
2023-04-08T07:07:59.393Z,17.75
2023-04-08T07:10:26.715Z,17.17
2023-04-08T07:12:54.762Z,16.25
2023-04-08T07:15:21.952Z,17.15
2023-04-08T07:17:49.707Z,15.82
2023-04-08T07:20:17.071Z,14.68
2023-04-08T07:22:44.381Z,16.13
2023-04-08T07:25:12.873Z,18.33
2023-04-08T07:27:40.554Z,18.80
2023-04-08T07:30:08.672Z,18.00
2023-04-08T07:32:37.011Z,16.77
2023-04-08T07:35:04.923Z,16.13
2023-04-08T07:37:32.739Z,17.40
2023-04-08T07:39:59.996Z,17.48
2023-04-08T07:42:27.720Z,16.83
2023-04-08T07:44:55.862Z,15.38
2023-04-08T07:47:23.615Z,17.92
2023-04-08T07:49:51.142Z,17.80
2023-04-08T07:52:18.462Z,16.30
2023-04-08T07:54:45.822Z,15.85
2023-04-08T07:57:13.493Z,17.33
2023-04-08T07:59:41.960Z,16.33
2023-04-08T08:02:09.394Z,16.45
2023-04-08T08:04:37.080Z,14.80
2023-04-08T08:07:04.687Z,15.95
2023-04-08T08:09:32.299Z,14.52
2023-04-08T08:11:59.694Z,13.27
2023-04-08T08:14:27.278Z,15.30
2023-04-08T08:16:54.851Z,12.13
2023-04-08T08:19:22.299Z,12.00
2023-04-08T08:21:50.639Z,12.00
2023-04-08T08:24:18.098Z,13.10
2023-04-08T08:26:47.483Z,13.75
2023-04-08T08:29:15.060Z,12.90
2023-04-08T08:31:42.617Z,14.27
2023-04-08T08:34:09.842Z,13.13
2023-04-08T08:36:37.040Z,16.00
2023-04-08T08:39:04.864Z,14.95
2023-04-08T08:41:36.803Z,15.38
2023-04-08T08:44:07.197Z,15.23
2023-04-08T08:46:37.288Z,13.88
2023-04-08T08:49:04.743Z,10.93
2023-04-08T08:51:33.061Z,11.43
2023-04-08T08:54:04.564Z,13.20
2023-04-08T08:56:33.807Z,13.27
2023-04-08T08:59:01.491Z,13.98
2023-04-08T09:01:38.838Z,14.00
2023-04-08T09:04:20.869Z,13.20
2023-04-08T09:06:51.201Z,13.63
2023-04-08T09:09:18.886Z,15.93
2023-04-08T09:11:47.733Z,15.90
2023-04-08T09:14:19.559Z,13.57
2023-04-08T09:16:47.487Z,11.90
2023-04-08T09:19:15.090Z,11.80
2023-04-08T09:21:42.703Z,13.18
2023-04-08T09:24:27.197Z,12.82
2023-04-08T09:27:33.974Z,14.15
2023-04-08T09:30:14.975Z,15.95
2023-04-08T09:33:07.717Z,13.20
2023-04-08T09:35:35.302Z,11.05
2023-04-08T09:38:02.917Z,11.75
2023-04-08T09:40:37.612Z,13.38
2023-04-08T09:43:06.610Z,11.85
2023-04-08T09:45:36.671Z,12.02
2023-04-08T09:48:13.837Z,11.65
2023-04-08T09:50:51.940Z,12.45
2023-04-08T09:53:31.902Z,11.60
2023-04-08T09:56:00.919Z,12.38
2023-04-08T09:58:29.976Z,12.13
2023-04-08T10:00:57.835Z,11.80
2023-04-08T10:03:42.320Z,11.98
2023-04-08T10:06:19.594Z,11.65
2023-04-08T10:08:47.084Z,11.75
2023-04-08T10:11:17.930Z,10.13
2023-04-08T10:13:46.048Z,11.68
2023-04-08T10:16:27.753Z,10.98
2023-04-08T10:18:58.365Z,11.77
2023-04-08T10:21:52.141Z,10.60
2023-04-08T10:24:24.372Z,11.88
2023-04-08T10:26:51.590Z,11.07
2023-04-08T10:29:31.847Z,11.63
2023-04-08T10:31:59.146Z,11.13
2023-04-08T10:34:27.558Z,12.55
2023-04-08T10:36:57.133Z,11.40
2023-04-08T10:39:26.984Z,10.90
2023-04-08T10:41:54.312Z,10.90
2023-04-08T10:44:26.962Z,10.38
2023-04-08T10:46:55.117Z,9.45
2023-04-08T10:49:22.734Z,9.25
2023-04-08T10:51:50.033Z,9.20
2023-04-08T10:54:19.056Z,8.60
2023-04-08T10:56:53.724Z,9.27
2023-04-08T10:59:34.959Z,9.98
2023-04-08T11:02:03.169Z,9.80
2023-04-08T11:04:30.485Z,9.95
2023-04-08T11:06:58.678Z,9.90
2023-04-08T11:09:25.815Z,9.13
2023-04-08T11:11:53.996Z,10.10
2023-04-08T11:14:22.654Z,9.68
2023-04-08T11:16:50.169Z,9.13
2023-04-08T11:19:18.409Z,8.82
2023-04-08T11:21:47.198Z,8.43
2023-04-08T11:24:14.556Z,8.25
2023-04-08T11:26:42.859Z,8.63
2023-04-08T11:29:14.462Z,8.98
2023-04-08T11:31:44.149Z,8.50
2023-04-08T11:34:14.590Z,8.55
2023-04-08T11:36:42.396Z,8.80
2023-04-08T11:39:12.422Z,8.27
2023-04-08T11:41:43.289Z,7.75
2023-04-08T11:44:10.845Z,8.47
2023-04-08T11:46:38.224Z,9.32
2023-04-08T11:49:08.179Z,8.85
2023-04-08T11:51:54.756Z,8.88
2023-04-08T11:54:32.714Z,8.70
2023-04-08T11:57:04.320Z,8.75
2023-04-08T12:01:59.382Z,9.43
2023-04-08T12:04:26.891Z,10.40
2023-04-08T12:06:55.005Z,8.35
2023-04-08T12:09:23.616Z,8.43
2023-04-08T12:11:50.976Z,8.50
2023-04-08T12:14:18.210Z,10.25
2023-04-08T12:16:45.480Z,9.90
2023-04-08T12:19:12.866Z,8.70
2023-04-08T12:21:40.189Z,8.00
2023-04-08T12:24:32.659Z,9.68
2023-04-08T12:26:59.828Z,9.95
2023-04-08T12:29:26.990Z,8.95
2023-04-08T12:31:56.374Z,10.20
2023-04-08T12:34:23.863Z,9.18
2023-04-08T12:37:29.456Z,10.45
2023-04-08T12:39:56.995Z,9.73
2023-04-08T12:42:24.203Z,9.75
2023-04-08T12:44:51.548Z,8.95
2023-04-08T12:50:00.617Z,9.75
2023-04-08T12:52:28.893Z,12.25
2023-04-08T12:55:32.461Z,11.15
2023-04-08T12:58:02.746Z,10.68
2023-04-08T13:00:30.350Z,12.45
2023-04-08T13:03:22.820Z,14.38
2023-04-08T13:05:50.398Z,13.25
2023-04-08T13:08:19.354Z,13.30
2023-04-08T13:10:46.734Z,14.93
2023-04-08T13:13:14.463Z,14.50
2023-04-08T13:15:44.215Z,15.93
2023-04-08T13:18:11.364Z,17.73
2023-04-08T13:20:38.927Z,17.10
2023-04-08T13:23:06.291Z,17.52
2023-04-08T13:25:33.690Z,17.92
2023-04-08T13:28:01.291Z,19.70
2023-04-08T13:30:28.670Z,17.48
2023-04-08T13:33:05.578Z,18.92
2023-04-08T13:35:32.931Z,20.88
2023-04-08T13:38:00.217Z,17.33
2023-04-08T13:40:28.208Z,17.20
2023-04-08T13:43:03.959Z,19.05
2023-04-08T13:45:31.375Z,19.35
2023-04-08T13:47:59.935Z,17.02
2023-04-08T13:50:27.202Z,16.13
2023-04-08T13:53:03.973Z,15.98
2023-04-08T13:55:31.327Z,16.25
2023-04-08T13:57:58.471Z,14.90
2023-04-08T14:00:26.827Z,16.10
2023-04-08T14:02:54.162Z,16.52
2023-04-08T14:05:21.816Z,16.58
2023-04-08T14:07:54.974Z,18.13
2023-04-08T14:10:22.376Z,17.38
2023-04-08T14:12:49.655Z,16.05
2023-04-08T14:15:16.952Z,17.65
2023-04-08T14:17:44.330Z,16.23
2023-04-08T14:20:11.526Z,18.08
2023-04-08T14:22:44.824Z,18.90
2023-04-08T14:25:12.360Z,16.50
2023-04-08T14:27:50.944Z,18.23
2023-04-08T14:30:22.405Z,19.02
2023-04-08T14:32:49.862Z,16.77
2023-04-08T14:35:32.706Z,16.40
2023-04-08T14:38:00.393Z,16.25
2023-04-08T14:40:27.594Z,15.38
2023-04-08T14:42:54.887Z,17.20
2023-04-08T14:45:22.157Z,16.02
2023-04-08T14:47:49.468Z,16.67
2023-04-08T14:50:16.971Z,16.98
2023-04-08T14:52:45.482Z,20.20
2023-04-08T14:55:12.693Z,18.75
2023-04-08T14:57:39.986Z,20.00
2023-04-08T15:00:08.577Z,19.38
2023-04-08T15:02:36.166Z,19.75
2023-04-08T15:05:04.054Z,19.10
2023-04-08T15:07:35.285Z,21.33
2023-04-08T15:10:02.887Z,22.63
2023-04-08T15:12:30.619Z,24.75
2023-04-08T15:15:04.918Z,24.58
2023-04-08T15:17:32.634Z,27.65
2023-04-08T15:20:00.034Z,31.17
2023-04-08T15:22:27.348Z,28.48
2023-04-08T15:24:54.461Z,28.10
2023-04-08T15:27:21.831Z,29.63
2023-04-08T15:29:58.755Z,28.63
2023-04-08T15:32:30.877Z,26.65
2023-04-08T15:34:58.557Z,29.17
2023-04-08T15:37:31.113Z,25.63
2023-04-08T15:39:58.973Z,23.25
2023-04-08T15:42:26.614Z,23.83
2023-04-08T15:44:53.907Z,23.48
2023-04-08T15:47:21.272Z,20.90
2023-04-08T15:49:48.946Z,19.95
2023-04-08T15:52:16.949Z,22.42
2023-04-08T15:54:44.407Z,21.65
2023-04-08T15:57:13.026Z,22.10
2023-04-08T15:59:40.383Z,22.98
2023-04-08T16:02:08.273Z,22.75
2023-04-08T16:04:35.896Z,23.88
2023-04-08T16:07:04.373Z,20.42
2023-04-08T16:09:35.036Z,23.58
2023-04-08T16:12:02.818Z,23.77
2023-04-08T16:14:30.626Z,22.25
2023-04-08T16:16:57.803Z,23.88
2023-04-08T16:19:25.389Z,20.85
2023-04-08T16:21:52.860Z,22.15
2023-04-08T16:24:20.930Z,24.98
2023-04-08T16:26:48.172Z,22.73
2023-04-08T16:29:16.152Z,22.48
2023-04-08T16:31:43.557Z,20.23
2023-04-08T16:34:12.525Z,22.70
2023-04-08T16:36:39.798Z,20.90
2023-04-08T16:39:07.261Z,21.02
2023-04-08T16:41:34.493Z,20.98
2023-04-08T16:44:01.733Z,20.40
2023-04-08T16:46:29.036Z,21.83
2023-04-08T16:48:56.442Z,18.00
2023-04-08T16:51:23.731Z,19.52
2023-04-08T16:53:51.786Z,18.70
2023-04-08T16:56:19.366Z,18.42
2023-04-08T16:58:46.755Z,16.05
2023-04-08T17:01:16.685Z,15.15
2023-04-08T17:03:44.439Z,16.25
2023-04-08T17:06:13.875Z,17.98
2023-04-08T17:11:56.036Z,16.27
2023-04-08T17:14:52.958Z,14.13
2023-04-08T17:17:20.480Z,14.43
2023-04-08T17:19:48.269Z,14.07
2023-04-08T17:22:15.897Z,13.30
2023-04-08T17:24:47.761Z,12.93
2023-04-08T17:27:15.749Z,14.50
2023-04-08T17:29:43.244Z,14.43
2023-04-08T17:32:11.128Z,12.23
2023-04-08T17:34:39.181Z,12.07
2023-04-08T17:37:06.609Z,12.45
2023-04-08T17:39:33.944Z,13.40
2023-04-08T17:53:03.051Z,14.00
2023-04-08T17:55:32.452Z,15.43
2023-04-08T17:58:09.413Z,15.00
2023-04-08T18:00:44.050Z,13.77
2023-04-08T18:03:11.616Z,14.30
2023-04-08T18:05:39.323Z,14.43
2023-04-08T18:08:25.324Z,13.20
2023-04-08T18:10:52.690Z,12.02
2023-04-08T18:13:19.974Z,12.75
2023-04-08T18:15:47.396Z,14.23
2023-04-08T18:18:19.569Z,14.32
2023-04-08T18:20:46.815Z,14.38
2023-04-08T18:23:14.076Z,17.70
2023-04-08T18:25:42.906Z,17.48
2023-04-08T18:28:11.099Z,16.05
2023-04-08T18:30:38.343Z,16.65
2023-04-08T18:33:05.760Z,15.68
2023-04-08T18:35:32.997Z,25.95
2023-04-08T18:38:26.214Z,24.23
2023-04-08T18:40:53.537Z,25.85
2023-04-08T18:43:21.492Z,26.05
2023-04-08T18:45:48.700Z,25.38
2023-04-08T18:48:16.219Z,25.13
2023-04-08T18:50:44.320Z,26.02
2023-04-08T18:53:37.443Z,20.67
2023-04-08T18:56:05.229Z,22.33
2023-04-08T18:58:32.531Z,18.33
2023-04-08T19:00:59.674Z,19.75
2023-04-08T19:03:27.476Z,17.27
2023-04-08T19:05:55.781Z,15.82
2023-04-08T19:08:30.621Z,18.83
2023-04-08T19:10:58.025Z,16.05
2023-04-08T19:13:25.447Z,17.48
2023-04-08T19:15:53.174Z,16.27
2023-04-08T19:18:21.582Z,15.68
2023-04-08T19:20:49.254Z,14.73
2023-04-08T19:23:16.582Z,17.42
2023-04-08T19:25:44.172Z,15.82
2023-04-08T19:28:14.200Z,16.95
2023-04-08T19:30:44.391Z,16.08
2023-04-08T19:33:11.632Z,17.05
2023-04-08T19:35:39.279Z,16.83
2023-04-08T19:38:06.517Z,19.33
2023-04-08T19:40:33.788Z,17.65
2023-04-08T19:43:01.131Z,18.73
2023-04-08T19:45:28.281Z,19.10
2023-04-08T19:47:55.677Z,18.30
2023-04-08T19:50:23.158Z,16.70
2023-04-08T19:52:50.502Z,16.65
2023-04-08T19:55:33.215Z,17.88
2023-04-08T19:58:00.652Z,15.73
2023-04-08T20:00:29.290Z,17.40
2023-04-08T20:02:57.237Z,16.40
2023-04-08T20:05:24.834Z,17.70
2023-04-08T20:07:52.249Z,14.18
2023-04-08T20:10:20.751Z,14.45
2023-04-08T20:12:47.921Z,16.13
2023-04-08T20:15:24.122Z,14.45
2023-04-08T20:17:52.943Z,14.77
2023-04-08T20:20:35.001Z,14.75
2023-04-08T20:23:02.536Z,15.35
2023-04-08T20:25:32.245Z,14.70
2023-04-08T20:27:59.604Z,14.25
2023-04-08T20:30:26.755Z,14.57
2023-04-08T20:33:20.071Z,13.98
2023-04-08T20:35:49.495Z,13.82
2023-04-08T20:38:16.853Z,14.88
2023-04-08T20:40:44.417Z,14.32
2023-04-08T20:43:11.984Z,14.75
2023-04-08T20:45:39.231Z,15.15
2023-04-08T20:48:07.559Z,14.90
2023-04-08T20:50:35.256Z,15.43
2023-04-08T20:53:03.081Z,15.10
2023-04-08T20:55:30.665Z,16.25
2023-04-08T20:57:58.054Z,14.50
2023-04-08T21:00:25.553Z,16.30
2023-04-08T21:02:52.861Z,15.38
2023-04-08T21:05:36.708Z,16.13
2023-04-08T21:08:04.050Z,15.48
2023-04-08T21:10:31.365Z,14.38
2023-04-08T21:13:00.115Z,15.57
2023-04-08T21:15:28.257Z,16.23
2023-04-08T21:18:13.892Z,16.23
2023-04-08T21:20:44.375Z,15.70
2023-04-08T21:23:12.603Z,13.60
2023-04-08T21:25:40.008Z,14.88
2023-04-08T21:28:07.107Z,15.10
2023-04-08T21:30:34.504Z,14.85
2023-04-08T21:33:01.762Z,16.10
2023-04-08T21:35:29.263Z,15.23
2023-04-08T21:37:58.692Z,16.13
2023-04-08T21:40:26.329Z,15.77
2023-04-08T21:42:53.739Z,15.90
2023-04-08T21:45:21.021Z,15.02
2023-04-08T21:47:50.307Z,15.55
2023-04-08T21:50:17.840Z,13.65
2023-04-08T21:52:44.817Z,14.73
2023-04-08T21:55:11.770Z,14.43
2023-04-08T21:57:39.319Z,14.07
2023-04-08T22:00:13.193Z,12.80
2023-04-08T22:02:43.951Z,13.10
2023-04-08T22:05:11.820Z,13.25
2023-04-08T22:07:38.738Z,14.23
2023-04-08T22:10:06.168Z,14.25
2023-04-08T22:12:34.130Z,14.30
2023-04-08T22:15:01.192Z,14.07
2023-04-08T22:17:28.178Z,15.05
2023-04-08T22:19:55.548Z,14.02
2023-04-08T22:22:22.530Z,14.88
2023-04-08T22:24:49.444Z,14.32
2023-04-08T22:27:16.487Z,15.27
2023-04-08T22:29:43.512Z,15.48
2023-04-08T22:32:10.577Z,14.55
2023-04-08T22:34:37.553Z,14.95
2023-04-08T22:37:04.532Z,15.20
2023-04-08T22:39:31.966Z,13.68
2023-04-08T22:41:58.815Z,13.95
2023-04-08T22:44:25.926Z,13.50
2023-04-08T22:46:52.802Z,14.75
2023-04-08T22:49:19.813Z,15.25
2023-04-08T22:51:47.266Z,13.27
2023-04-08T22:54:14.293Z,14.90
2023-04-08T22:56:41.509Z,14.52
2023-04-08T22:59:08.552Z,13.27
2023-04-08T23:01:36.161Z,12.85
2023-04-08T23:04:03.531Z,13.38
2023-04-08T23:06:31.338Z,14.25
2023-04-08T23:08:58.369Z,14.98
2023-04-08T23:11:25.874Z,14.85
2023-04-08T23:13:52.946Z,14.55
2023-04-08T23:16:19.834Z,15.73
2023-04-08T23:18:46.789Z,15.55
2023-04-08T23:21:13.731Z,12.93
2023-04-08T23:23:40.844Z,13.73
2023-04-08T23:26:07.937Z,14.20
2023-04-08T23:28:34.958Z,16.40
2023-04-08T23:31:04.657Z,14.30
2023-04-08T23:33:31.563Z,13.80
2023-04-08T23:35:58.527Z,15.35
2023-04-08T23:38:25.683Z,14.93
2023-04-08T23:40:52.709Z,13.77
2023-04-08T23:43:19.669Z,13.70
2023-04-08T23:45:46.568Z,14.73
2023-04-08T23:48:13.479Z,13.18
2023-04-08T23:50:40.725Z,13.38
2023-04-08T23:53:07.666Z,13.25
2023-04-08T23:55:34.578Z,12.23
2023-04-08T23:58:01.520Z,10.05
